This is the latest recevied weather packets stored in our database for station/object KB2SKP. If no packets are shown the sender has not sent any weather packets the latest 1 day(s).
| Time | Temp. | Humidity | Pressure | Rain* | Wind** | Luminosity | Snow |
|---|---|---|---|---|---|---|---|
| 1778015782 | 27.78° C | 33% | 1007 hPa | 0 mm | 0.89 m/s, 185° | 75 W/m² | - |
| 1778015479 | 27.78° C | 34% | 1007 hPa | 0 mm | 1.34 m/s, 59° | 65 W/m² | - |
| 1778015175 | 27.78° C | 33% | 1006.6 hPa | 0 mm | 0.89 m/s, 78° | 71 W/m² | - |
| 1778014872 | 28.33° C | 34% | 1006.8 hPa | 0 mm | 0.89 m/s, 148° | 72 W/m² | - |
| 1778014570 | 27.78° C | 34% | 1006.9 hPa | 0 mm | 0.89 m/s, 101° | 148 W/m² | - |
| 1778014267 | 27.78° C | 33% | 1006.8 hPa | 0 mm | 0.45 m/s, 217° | 241 W/m² | - |
| 1778013964 | 27.78° C | 32% | 1006.9 hPa | 0 mm | 0.89 m/s, 352° | 230 W/m² | - |
| 1778013662 | 27.78° C | 31% | 1006.8 hPa | 0 mm | 0.45 m/s, 70° | 303 W/m² | - |
| 1778013358 | 27.78° C | 31% | 1006.8 hPa | 0 mm | 0.89 m/s, 38° | 222 W/m² | - |
| 1778013055 | 28.89° C | 32% | 1006.9 hPa | 0 mm | 1.34 m/s, 98° | 70 W/m² | - |
| 1778012751 | 28.33° C | 33% | 1006.9 hPa | 0 mm | 0.89 m/s, 12° | 47 W/m² | - |
| 1778012447 | 28.89° C | 33% | 1006.9 hPa | 0 mm | 0.89 m/s, 15° | 46 W/m² | - |
| 1778012144 | 28.89° C | 34% | 1007 hPa | 0 mm | 0.89 m/s, 254° | 47 W/m² | - |
| 1778011842 | 28.89° C | 34% | 1007.2 hPa | 0 mm | 0.45 m/s, 293° | 49 W/m² | - |
| 1778011540 | 28.33° C | 33% | 1007.4 hPa | 0 mm | 0.45 m/s, 51° | 51 W/m² | - |
| 1778011236 | 28.33° C | 33% | 1007.4 hPa | 0 mm | 0.89 m/s, 120° | 53 W/m² | - |
| 1778010932 | 28.33° C | 34% | 1007.4 hPa | 0 mm | 0 m/s | 55 W/m² | - |
| 1778010630 | 28.89° C | 34% | 1007.5 hPa | 0 mm | 0.45 m/s, 63° | 50 W/m² | - |
| 1778010327 | 28.33° C | 34% | 1007.4 hPa | 0 mm | 1.34 m/s, 217° | 55 W/m² | - |
| 1778010022 | 28.33° C | 35% | 1007.6 hPa | 0 mm | 0.89 m/s, 306° | 14 W/m² | - |
| 1778009720 | 28.89° C | 36% | 1007.9 hPa | 0 mm | 1.34 m/s, 124° | 50 W/m² | - |
| 1778009417 | 28.33° C | 35% | 1008 hPa | 0 mm | 0.45 m/s, 266° | 54 W/m² | - |
| 1778009115 | 27.78° C | 33% | 1007.9 hPa | 0 mm | 0.89 m/s, 113° | 264 W/m² | - |
| 1778008813 | 28.33° C | 35% | 1008 hPa | 0 mm | 0.45 m/s, 272° | 76 W/m² | - |
| 1778008511 | 28.33° C | 35% | 1008 hPa | 0 mm | 0 m/s | 46 W/m² | - |
* Rain latest hour (hover to see other rain measurements)
** Current wind speed in m/s (hover to see current wind gust speed)